Filey, United Kingdom
Current Conditions -  °F | °C
As of 10:50 PM on Tuesday 25 Nov 2014 (Local Time) from EGXV Reporting Station
Haze Haze  
Wind Chill: 43°   Ceiling: 2600
Heat Index: 43°   Visibility: 4mi
Dew Point: 41°   Wind: 2mph
Humidity: 93%   Direction: 360°N
Pressure: 30.09"   Gusts: NA
Location:  54.21°N, 0.29°W
Report Text: EGXV 252250Z AUTO 36002KT 6000 BR BKN026/// SCT080/// BKN120/// 06/05 Q1019
Loading
Personal Weather Stations






























Interactive Weather Map New forecast layout! Learn more

10-Day Weather Forecast

Advertisements
Track Severe Weather on mobile